sensor_id;sensor_type;location;lat;lon;timestamp;P1;durP1;ratioP1;P2;durP2;ratioP2
40150;SDS011;25866;52.420;10.640;2023-03-02T00:00:42;9.97;;;5.57;;
40150;SDS011;25866;52.420;10.640;2023-03-02T00:03:09;8.97;;;5.80;;
40150;SDS011;25866;52.420;10.640;2023-03-02T00:05:35;10.70;;;5.60;;
40150;SDS011;25866;52.420;10.640;2023-03-02T00:08:05;11.27;;;5.63;;
40150;SDS011;25866;52.420;10.640;2023-03-02T00:10:33;10.27;;;5.90;;
40150;SDS011;25866;52.420;10.640;2023-03-02T00:13:00;11.47;;;6.37;;
40150;SDS011;25866;52.420;10.640;2023-03-02T00:15:26;12.90;;;6.33;;
40150;SDS011;25866;52.420;10.640;2023-03-02T00:17:52;12.03;;;6.23;;
40150;SDS011;25866;52.420;10.640;2023-03-02T00:20:18;10.60;;;6.57;;
40150;SDS011;25866;52.420;10.640;2023-03-02T00:22:44;10.60;;;6.03;;
40150;SDS011;25866;52.420;10.640;2023-03-02T00:25:11;11.87;;;6.83;;
40150;SDS011;25866;52.420;10.640;2023-03-02T00:27:38;11.43;;;6.73;;
40150;SDS011;25866;52.420;10.640;2023-03-02T00:30:04;11.67;;;6.47;;
40150;SDS011;25866;52.420;10.640;2023-03-02T00:32:30;12.87;;;6.73;;
40150;SDS011;25866;52.420;10.640;2023-03-02T00:34:56;13.60;;;6.67;;
40150;SDS011;25866;52.420;10.640;2023-03-02T00:37:22;11.90;;;6.83;;
40150;SDS011;25866;52.420;10.640;2023-03-02T00:39:52;11.07;;;6.77;;
40150;SDS011;25866;52.420;10.640;2023-03-02T00:42:19;12.13;;;6.63;;
40150;SDS011;25866;52.420;10.640;2023-03-02T00:44:45;10.23;;;5.93;;
40150;SDS011;25866;52.420;10.640;2023-03-02T00:47:11;9.70;;;6.13;;
40150;SDS011;25866;52.420;10.640;2023-03-02T00:49:39;10.97;;;6.13;;
40150;SDS011;25866;52.420;10.640;2023-03-02T00:52:04;11.37;;;6.07;;
40150;SDS011;25866;52.420;10.640;2023-03-02T00:54:30;8.83;;;6.27;;
40150;SDS011;25866;52.420;10.640;2023-03-02T00:56:56;10.93;;;6.50;;
40150;SDS011;25866;52.420;10.640;2023-03-02T00:59:22;9.27;;;5.33;;
40150;SDS011;25866;52.420;10.640;2023-03-02T01:01:51;9.33;;;5.47;;
40150;SDS011;25866;52.420;10.640;2023-03-02T01:04:30;8.47;;;5.00;;
40150;SDS011;25866;52.420;10.640;2023-03-02T01:07:00;9.03;;;4.87;;
40150;SDS011;25866;52.420;10.640;2023-03-02T01:09:28;9.50;;;5.20;;
40150;SDS011;25866;52.420;10.640;2023-03-02T01:11:55;7.53;;;5.10;;
40150;SDS011;25866;52.420;10.640;2023-03-02T01:14:21;8.20;;;5.20;;
40150;SDS011;25866;52.420;10.640;2023-03-02T01:16:48;9.10;;;5.30;;
40150;SDS011;25866;52.420;10.640;2023-03-02T01:19:14;9.07;;;5.40;;
40150;SDS011;25866;52.420;10.640;2023-03-02T01:21:42;10.17;;;5.67;;
40150;SDS011;25866;52.420;10.640;2023-03-02T01:24:09;10.20;;;5.63;;
40150;SDS011;25866;52.420;10.640;2023-03-02T01:26:35;12.60;;;5.63;;
40150;SDS011;25866;52.420;10.640;2023-03-02T01:29:01;9.23;;;5.07;;
40150;SDS011;25866;52.420;10.640;2023-03-02T01:31:28;9.20;;;5.67;;
40150;SDS011;25866;52.420;10.640;2023-03-02T01:33:54;8.40;;;4.97;;
40150;SDS011;25866;52.420;10.640;2023-03-02T01:36:21;10.60;;;5.83;;
40150;SDS011;25866;52.420;10.640;2023-03-02T01:38:48;10.40;;;5.97;;
40150;SDS011;25866;52.420;10.640;2023-03-02T01:41:16;12.30;;;6.23;;
40150;SDS011;25866;52.420;10.640;2023-03-02T01:43:42;11.07;;;6.43;;
40150;SDS011;25866;52.420;10.640;2023-03-02T01:46:12;11.50;;;6.67;;
40150;SDS011;25866;52.420;10.640;2023-03-02T01:49:06;12.57;;;7.27;;
40150;SDS011;25866;52.420;10.640;2023-03-02T01:51:37;24.17;;;9.70;;
40150;SDS011;25866;52.420;10.640;2023-03-02T01:54:09;20.23;;;10.50;;
40150;SDS011;25866;52.420;10.640;2023-03-02T01:56:41;23.07;;;11.70;;
40150;SDS011;25866;52.420;10.640;2023-03-02T01:59:12;32.73;;;13.37;;
40150;SDS011;25866;52.420;10.640;2023-03-02T02:01:43;62.40;;;12.90;;
40150;SDS011;25866;52.420;10.640;2023-03-02T02:04:14;50.93;;;14.00;;
40150;SDS011;25866;52.420;10.640;2023-03-02T02:06:46;48.33;;;13.63;;
40150;SDS011;25866;52.420;10.640;2023-03-02T02:09:16;60.63;;;14.93;;
40150;SDS011;25866;52.420;10.640;2023-03-02T02:11:44;83.50;;;15.37;;
40150;SDS011;25866;52.420;10.640;2023-03-02T02:14:10;62.20;;;15.60;;
40150;SDS011;25866;52.420;10.640;2023-03-02T02:16:36;68.90;;;16.33;;
40150;SDS011;25866;52.420;10.640;2023-03-02T02:19:04;45.63;;;16.17;;
40150;SDS011;25866;52.420;10.640;2023-03-02T02:21:37;77.00;;;17.87;;
40150;SDS011;25866;52.420;10.640;2023-03-02T02:24:08;73.30;;;17.30;;
40150;SDS011;25866;52.420;10.640;2023-03-02T02:26:46;42.97;;;16.83;;
40150;SDS011;25866;52.420;10.640;2023-03-02T02:29:16;48.33;;;16.97;;
40150;SDS011;25866;52.420;10.640;2023-03-02T02:31:56;48.73;;;17.77;;
40150;SDS011;25866;52.420;10.640;2023-03-02T02:34:49;79.40;;;18.43;;
40150;SDS011;25866;52.420;10.640;2023-03-02T02:37:34;64.30;;;17.87;;
40150;SDS011;25866;52.420;10.640;2023-03-02T02:40:05;77.97;;;18.20;;
40150;SDS011;25866;52.420;10.640;2023-03-02T02:42:37;54.37;;;17.10;;
40150;SDS011;25866;52.420;10.640;2023-03-02T02:45:16;70.80;;;18.33;;
40150;SDS011;25866;52.420;10.640;2023-03-02T02:47:45;57.73;;;18.60;;
40150;SDS011;25866;52.420;10.640;2023-03-02T02:50:18;104.47;;;17.80;;
40150;SDS011;25866;52.420;10.640;2023-03-02T02:52:49;64.30;;;17.77;;
40150;SDS011;25866;52.420;10.640;2023-03-02T02:55:36;53.43;;;16.57;;
40150;SDS011;25866;52.420;10.640;2023-03-02T02:58:06;85.37;;;17.73;;
40150;SDS011;25866;52.420;10.640;2023-03-02T03:00:57;47.50;;;17.03;;
40150;SDS011;25866;52.420;10.640;2023-03-02T03:03:26;42.57;;;17.53;;
40150;SDS011;25866;52.420;10.640;2023-03-02T03:05:58;41.53;;;18.33;;
40150;SDS011;25866;52.420;10.640;2023-03-02T03:11:11;130.20;;;19.30;;
40150;SDS011;25866;52.420;10.640;2023-03-02T03:13:39;69.83;;;19.73;;
40150;SDS011;25866;52.420;10.640;2023-03-02T03:16:08;60.03;;;19.50;;
40150;SDS011;25866;52.420;10.640;2023-03-02T03:18:37;61.33;;;19.10;;
40150;SDS011;25866;52.420;10.640;2023-03-02T03:21:07;98.57;;;18.57;;
40150;SDS011;25866;52.420;10.640;2023-03-02T03:23:32;104.07;;;19.80;;
40150;SDS011;25866;52.420;10.640;2023-03-02T03:26:02;75.30;;;20.03;;
40150;SDS011;25866;52.420;10.640;2023-03-02T03:28:31;76.93;;;19.97;;
40150;SDS011;25866;52.420;10.640;2023-03-02T03:30:57;55.00;;;20.17;;
40150;SDS011;25866;52.420;10.640;2023-03-02T03:33:23;85.27;;;20.03;;
40150;SDS011;25866;52.420;10.640;2023-03-02T03:35:49;65.27;;;17.50;;
40150;SDS011;25866;52.420;10.640;2023-03-02T03:38:15;77.03;;;19.83;;
40150;SDS011;25866;52.420;10.640;2023-03-02T03:40:42;76.60;;;19.73;;
40150;SDS011;25866;52.420;10.640;2023-03-02T03:43:08;74.83;;;19.57;;
40150;SDS011;25866;52.420;10.640;2023-03-02T03:45:34;68.00;;;19.07;;
40150;SDS011;25866;52.420;10.640;2023-03-02T03:48:00;62.70;;;17.97;;
40150;SDS011;25866;52.420;10.640;2023-03-02T03:50:25;50.83;;;17.33;;
40150;SDS011;25866;52.420;10.640;2023-03-02T03:52:51;57.87;;;17.30;;
40150;SDS011;25866;52.420;10.640;2023-03-02T03:55:17;40.17;;;17.60;;
40150;SDS011;25866;52.420;10.640;2023-03-02T03:57:43;63.63;;;18.53;;
40150;SDS011;25866;52.420;10.640;2023-03-02T04:00:10;43.63;;;18.57;;
40150;SDS011;25866;52.420;10.640;2023-03-02T04:02:41;62.10;;;17.50;;
40150;SDS011;25866;52.420;10.640;2023-03-02T04:05:07;45.20;;;17.47;;
40150;SDS011;25866;52.420;10.640;2023-03-02T04:07:34;59.63;;;17.80;;
40150;SDS011;25866;52.420;10.640;2023-03-02T04:10:01;62.23;;;18.83;;
40150;SDS011;25866;52.420;10.640;2023-03-02T04:12:30;50.23;;;17.20;;
40150;SDS011;25866;52.420;10.640;2023-03-02T04:14:56;95.27;;;18.77;;
40150;SDS011;25866;52.420;10.640;2023-03-02T04:17:22;62.47;;;17.00;;
40150;SDS011;25866;52.420;10.640;2023-03-02T04:19:48;82.43;;;17.57;;
40150;SDS011;25866;52.420;10.640;2023-03-02T04:22:15;55.27;;;17.53;;
40150;SDS011;25866;52.420;10.640;2023-03-02T04:24:41;61.53;;;18.27;;
40150;SDS011;25866;52.420;10.640;2023-03-02T04:27:07;59.30;;;16.93;;
40150;SDS011;25866;52.420;10.640;2023-03-02T04:29:34;68.40;;;18.43;;
40150;SDS011;25866;52.420;10.640;2023-03-02T04:32:00;66.47;;;17.73;;
40150;SDS011;25866;52.420;10.640;2023-03-02T04:34:27;54.13;;;18.77;;
40150;SDS011;25866;52.420;10.640;2023-03-02T04:36:52;39.90;;;18.57;;
40150;SDS011;25866;52.420;10.640;2023-03-02T04:39:18;42.83;;;18.00;;
40150;SDS011;25866;52.420;10.640;2023-03-02T04:41:46;46.10;;;17.27;;
40150;SDS011;25866;52.420;10.640;2023-03-02T04:44:13;56.63;;;18.33;;
40150;SDS011;25866;52.420;10.640;2023-03-02T04:46:39;55.17;;;19.50;;
40150;SDS011;25866;52.420;10.640;2023-03-02T04:49:06;34.43;;;17.50;;
40150;SDS011;25866;52.420;10.640;2023-03-02T04:51:41;109.00;;;18.30;;
40150;SDS011;25866;52.420;10.640;2023-03-02T04:54:11;66.67;;;18.30;;
40150;SDS011;25866;52.420;10.640;2023-03-02T04:56:42;47.57;;;17.87;;
40150;SDS011;25866;52.420;10.640;2023-03-02T04:59:07;51.27;;;18.27;;
40150;SDS011;25866;52.420;10.640;2023-03-02T05:01:33;46.43;;;18.07;;
40150;SDS011;25866;52.420;10.640;2023-03-02T05:03:59;43.80;;;17.57;;
40150;SDS011;25866;52.420;10.640;2023-03-02T05:06:24;55.50;;;19.30;;
40150;SDS011;25866;52.420;10.640;2023-03-02T05:08:51;64.93;;;18.97;;
40150;SDS011;25866;52.420;10.640;2023-03-02T05:11:17;70.47;;;18.70;;
40150;SDS011;25866;52.420;10.640;2023-03-02T05:13:50;95.53;;;18.73;;
40150;SDS011;25866;52.420;10.640;2023-03-02T05:16:17;55.60;;;18.60;;
40150;SDS011;25866;52.420;10.640;2023-03-02T05:18:43;104.27;;;18.63;;
40150;SDS011;25866;52.420;10.640;2023-03-02T05:21:09;44.27;;;17.33;;
40150;SDS011;25866;52.420;10.640;2023-03-02T05:23:35;82.13;;;18.27;;
40150;SDS011;25866;52.420;10.640;2023-03-02T05:26:01;79.90;;;17.70;;
40150;SDS011;25866;52.420;10.640;2023-03-02T05:28:27;69.27;;;19.67;;
40150;SDS011;25866;52.420;10.640;2023-03-02T05:30:53;44.80;;;18.23;;
40150;SDS011;25866;52.420;10.640;2023-03-02T05:33:18;53.60;;;17.87;;
40150;SDS011;25866;52.420;10.640;2023-03-02T05:35:45;56.97;;;17.83;;
40150;SDS011;25866;52.420;10.640;2023-03-02T05:38:11;63.37;;;17.17;;
40150;SDS011;25866;52.420;10.640;2023-03-02T05:40:38;49.20;;;18.33;;
40150;SDS011;25866;52.420;10.640;2023-03-02T05:43:06;61.73;;;16.57;;
40150;SDS011;25866;52.420;10.640;2023-03-02T05:45:34;88.37;;;20.63;;
40150;SDS011;25866;52.420;10.640;2023-03-02T05:48:02;72.00;;;19.60;;
40150;SDS011;25866;52.420;10.640;2023-03-02T05:50:28;72.97;;;19.43;;
40150;SDS011;25866;52.420;10.640;2023-03-02T05:52:54;77.83;;;22.07;;
40150;SDS011;25866;52.420;10.640;2023-03-02T05:55:19;70.90;;;18.03;;
40150;SDS011;25866;52.420;10.640;2023-03-02T05:57:45;68.57;;;18.10;;
40150;SDS011;25866;52.420;10.640;2023-03-02T06:00:13;71.10;;;18.40;;
40150;SDS011;25866;52.420;10.640;2023-03-02T06:02:40;53.90;;;18.63;;
40150;SDS011;25866;52.420;10.640;2023-03-02T06:05:07;46.53;;;19.97;;
40150;SDS011;25866;52.420;10.640;2023-03-02T06:07:38;58.27;;;15.90;;
40150;SDS011;25866;52.420;10.640;2023-03-02T06:10:04;50.83;;;15.73;;
40150;SDS011;25866;52.420;10.640;2023-03-02T06:12:31;57.13;;;17.17;;
40150;SDS011;25866;52.420;10.640;2023-03-02T06:14:56;87.33;;;17.93;;
40150;SDS011;25866;52.420;10.640;2023-03-02T06:17:23;38.10;;;15.43;;
40150;SDS011;25866;52.420;10.640;2023-03-02T06:19:49;41.30;;;16.30;;
40150;SDS011;25866;52.420;10.640;2023-03-02T06:22:15;55.63;;;19.20;;
40150;SDS011;25866;52.420;10.640;2023-03-02T06:24:41;37.30;;;15.43;;
40150;SDS011;25866;52.420;10.640;2023-03-02T06:27:07;35.20;;;14.77;;
40150;SDS011;25866;52.420;10.640;2023-03-02T06:29:32;59.47;;;14.07;;
40150;SDS011;25866;52.420;10.640;2023-03-02T06:31:58;35.60;;;13.60;;
40150;SDS011;25866;52.420;10.640;2023-03-02T06:34:24;88.87;;;14.57;;
40150;SDS011;25866;52.420;10.640;2023-03-02T06:36:49;68.77;;;14.57;;
40150;SDS011;25866;52.420;10.640;2023-03-02T06:39:15;42.80;;;15.27;;
40150;SDS011;25866;52.420;10.640;2023-03-02T06:41:41;63.77;;;15.87;;
40150;SDS011;25866;52.420;10.640;2023-03-02T06:44:09;76.80;;;15.70;;
40150;SDS011;25866;52.420;10.640;2023-03-02T06:46:35;37.13;;;14.77;;
40150;SDS011;25866;52.420;10.640;2023-03-02T06:49:01;85.20;;;15.23;;
40150;SDS011;25866;52.420;10.640;2023-03-02T06:51:27;41.37;;;13.53;;
40150;SDS011;25866;52.420;10.640;2023-03-02T06:53:53;21.53;;;13.03;;
40150;SDS011;25866;52.420;10.640;2023-03-02T06:56:19;21.07;;;12.60;;
40150;SDS011;25866;52.420;10.640;2023-03-02T06:58:44;37.43;;;13.47;;
40150;SDS011;25866;52.420;10.640;2023-03-02T07:01:10;31.93;;;13.20;;
40150;SDS011;25866;52.420;10.640;2023-03-02T07:03:37;55.47;;;14.80;;
40150;SDS011;25866;52.420;10.640;2023-03-02T07:06:02;46.43;;;15.07;;
40150;SDS011;25866;52.420;10.640;2023-03-02T07:08:28;31.57;;;15.30;;
40150;SDS011;25866;52.420;10.640;2023-03-02T07:10:54;58.93;;;15.53;;
40150;SDS011;25866;52.420;10.640;2023-03-02T07:13:22;55.60;;;15.67;;
40150;SDS011;25866;52.420;10.640;2023-03-02T07:15:48;46.80;;;13.87;;
40150;SDS011;25866;52.420;10.640;2023-03-02T07:18:14;75.10;;;13.50;;
40150;SDS011;25866;52.420;10.640;2023-03-02T07:20:40;45.80;;;13.70;;
40150;SDS011;25866;52.420;10.640;2023-03-02T07:23:05;65.03;;;13.83;;
40150;SDS011;25866;52.420;10.640;2023-03-02T07:25:31;57.90;;;14.50;;
40150;SDS011;25866;52.420;10.640;2023-03-02T07:27:57;73.63;;;15.30;;
40150;SDS011;25866;52.420;10.640;2023-03-02T07:30:23;47.73;;;15.53;;
40150;SDS011;25866;52.420;10.640;2023-03-02T07:32:49;53.00;;;15.90;;
40150;SDS011;25866;52.420;10.640;2023-03-02T07:35:15;45.13;;;14.70;;
40150;SDS011;25866;52.420;10.640;2023-03-02T07:37:41;58.97;;;15.60;;
40150;SDS011;25866;52.420;10.640;2023-03-02T07:40:12;53.00;;;16.97;;
40150;SDS011;25866;52.420;10.640;2023-03-02T07:42:39;44.67;;;15.60;;
40150;SDS011;25866;52.420;10.640;2023-03-02T07:45:05;65.33;;;17.50;;
40150;SDS011;25866;52.420;10.640;2023-03-02T07:47:31;52.73;;;16.97;;
40150;SDS011;25866;52.420;10.640;2023-03-02T07:49:57;85.70;;;17.17;;
40150;SDS011;25866;52.420;10.640;2023-03-02T07:52:22;63.83;;;16.77;;
40150;SDS011;25866;52.420;10.640;2023-03-02T07:54:48;44.83;;;17.10;;
40150;SDS011;25866;52.420;10.640;2023-03-02T07:57:14;46.83;;;16.47;;
40150;SDS011;25866;52.420;10.640;2023-03-02T07:59:43;63.20;;;16.13;;
40150;SDS011;25866;52.420;10.640;2023-03-02T08:02:13;57.17;;;17.20;;
40150;SDS011;25866;52.420;10.640;2023-03-02T08:04:40;52.13;;;17.37;;
40150;SDS011;25866;52.420;10.640;2023-03-02T08:07:06;39.07;;;16.23;;
40150;SDS011;25866;52.420;10.640;2023-03-02T08:09:32;46.37;;;17.00;;
40150;SDS011;25866;52.420;10.640;2023-03-02T08:11:58;58.10;;;17.63;;
40150;SDS011;25866;52.420;10.640;2023-03-02T08:14:23;43.43;;;16.67;;
40150;SDS011;25866;52.420;10.640;2023-03-02T08:16:49;60.30;;;17.87;;
40150;SDS011;25866;52.420;10.640;2023-03-02T08:19:16;31.10;;;15.70;;
40150;SDS011;25866;52.420;10.640;2023-03-02T08:21:43;36.97;;;15.47;;
40150;SDS011;25866;52.420;10.640;2023-03-02T08:24:09;69.00;;;14.23;;
40150;SDS011;25866;52.420;10.640;2023-03-02T08:26:36;39.20;;;14.77;;
40150;SDS011;25866;52.420;10.640;2023-03-02T08:29:02;41.10;;;12.80;;
40150;SDS011;25866;52.420;10.640;2023-03-02T08:31:28;24.57;;;13.23;;
40150;SDS011;25866;52.420;10.640;2023-03-02T08:33:54;33.03;;;12.97;;
40150;SDS011;25866;52.420;10.640;2023-03-02T08:36:20;37.90;;;12.87;;
40150;SDS011;25866;52.420;10.640;2023-03-02T08:38:46;19.33;;;11.60;;
40150;SDS011;25866;52.420;10.640;2023-03-02T08:41:16;38.37;;;12.30;;
40150;SDS011;25866;52.420;10.640;2023-03-02T08:43:44;38.27;;;15.73;;
40150;SDS011;25866;52.420;10.640;2023-03-02T08:46:11;32.50;;;13.50;;
40150;SDS011;25866;52.420;10.640;2023-03-02T08:48:37;58.37;;;12.23;;
40150;SDS011;25866;52.420;10.640;2023-03-02T08:51:08;23.13;;;12.13;;
40150;SDS011;25866;52.420;10.640;2023-03-02T08:53:37;31.93;;;14.37;;
40150;SDS011;25866;52.420;10.640;2023-03-02T08:56:13;31.97;;;13.83;;
40150;SDS011;25866;52.420;10.640;2023-03-02T08:58:40;21.70;;;12.87;;
40150;SDS011;25866;52.420;10.640;2023-03-02T09:01:11;27.67;;;13.20;;
40150;SDS011;25866;52.420;10.640;2023-03-02T09:03:38;31.00;;;12.27;;
40150;SDS011;25866;52.420;10.640;2023-03-02T09:06:04;29.33;;;12.30;;
40150;SDS011;25866;52.420;10.640;2023-03-02T09:08:30;28.97;;;10.53;;
40150;SDS011;25866;52.420;10.640;2023-03-02T09:10:55;31.60;;;10.83;;
40150;SDS011;25866;52.420;10.640;2023-03-02T09:13:21;37.83;;;10.67;;
40150;SDS011;25866;52.420;10.640;2023-03-02T09:15:47;28.03;;;10.27;;
40150;SDS011;25866;52.420;10.640;2023-03-02T09:18:13;29.57;;;10.23;;
40150;SDS011;25866;52.420;10.640;2023-03-02T09:20:38;49.60;;;10.63;;
40150;SDS011;25866;52.420;10.640;2023-03-02T09:23:04;23.73;;;11.77;;
40150;SDS011;25866;52.420;10.640;2023-03-02T09:25:30;28.97;;;13.57;;
40150;SDS011;25866;52.420;10.640;2023-03-02T09:27:55;51.50;;;16.77;;
40150;SDS011;25866;52.420;10.640;2023-03-02T09:30:21;40.93;;;18.30;;
40150;SDS011;25866;52.420;10.640;2023-03-02T09:32:47;48.17;;;19.60;;
40150;SDS011;25866;52.420;10.640;2023-03-02T09:35:13;59.87;;;19.43;;
40150;SDS011;25866;52.420;10.640;2023-03-02T09:37:38;50.60;;;18.33;;
40150;SDS011;25866;52.420;10.640;2023-03-02T09:40:08;43.63;;;20.03;;
40150;SDS011;25866;52.420;10.640;2023-03-02T09:51:22;52.10;;;16.40;;
40150;SDS011;25866;52.420;10.640;2023-03-02T09:54:15;30.77;;;14.23;;
40150;SDS011;25866;52.420;10.640;2023-03-02T09:56:43;45.70;;;16.43;;
40150;SDS011;25866;52.420;10.640;2023-03-02T10:01:56;50.03;;;17.60;;
40150;SDS011;25866;52.420;10.640;2023-03-02T10:04:35;39.20;;;16.63;;
40150;SDS011;25866;52.420;10.640;2023-03-02T10:09:39;47.83;;;18.30;;
40150;SDS011;25866;52.420;10.640;2023-03-02T10:28:31;51.07;;;23.50;;
40150;SDS011;25866;52.420;10.640;2023-03-02T10:31:09;79.63;;;35.30;;
40150;SDS011;25866;52.420;10.640;2023-03-02T10:33:39;49.97;;;23.07;;
40150;SDS011;25866;52.420;10.640;2023-03-02T10:36:12;54.27;;;22.60;;
40150;SDS011;25866;52.420;10.640;2023-03-02T10:38:53;45.53;;;21.10;;
40150;SDS011;25866;52.420;10.640;2023-03-02T10:41:29;75.63;;;22.27;;
40150;SDS011;25866;52.420;10.640;2023-03-02T10:44:03;65.93;;;23.00;;
40150;SDS011;25866;52.420;10.640;2023-03-02T10:46:42;78.70;;;27.10;;
40150;SDS011;25866;52.420;10.640;2023-03-02T10:54:29;54.43;;;23.20;;
40150;SDS011;25866;52.420;10.640;2023-03-02T10:56:59;52.43;;;23.50;;
40150;SDS011;25866;52.420;10.640;2023-03-02T10:59:43;57.03;;;23.23;;
40150;SDS011;25866;52.420;10.640;2023-03-02T11:02:20;81.83;;;24.37;;
40150;SDS011;25866;52.420;10.640;2023-03-02T11:04:57;52.10;;;24.77;;
40150;SDS011;25866;52.420;10.640;2023-03-02T11:07:53;53.53;;;22.30;;
40150;SDS011;25866;52.420;10.640;2023-03-02T11:10:21;54.47;;;23.53;;
40150;SDS011;25866;52.420;10.640;2023-03-02T11:12:49;54.10;;;22.97;;
40150;SDS011;25866;52.420;10.640;2023-03-02T11:15:18;48.43;;;21.77;;
40150;SDS011;25866;52.420;10.640;2023-03-02T11:17:47;41.93;;;23.27;;
40150;SDS011;25866;52.420;10.640;2023-03-02T11:20:25;45.90;;;23.53;;
40150;SDS011;25866;52.420;10.640;2023-03-02T11:23:13;48.00;;;23.97;;
40150;SDS011;25866;52.420;10.640;2023-03-02T11:26:00;40.70;;;22.40;;
40150;SDS011;25866;52.420;10.640;2023-03-02T11:31:21;42.77;;;23.30;;
40150;SDS011;25866;52.420;10.640;2023-03-02T11:34:17;45.43;;;22.90;;
40150;SDS011;25866;52.420;10.640;2023-03-02T11:36:56;51.47;;;23.17;;
40150;SDS011;25866;52.420;10.640;2023-03-02T11:39:24;45.80;;;24.87;;
40150;SDS011;25866;52.420;10.640;2023-03-02T11:41:55;47.23;;;21.97;;
40150;SDS011;25866;52.420;10.640;2023-03-02T11:44:20;50.30;;;24.43;;
40150;SDS011;25866;52.420;10.640;2023-03-02T11:46:49;41.97;;;23.33;;
40150;SDS011;25866;52.420;10.640;2023-03-02T11:49:38;52.90;;;25.80;;
40150;SDS011;25866;52.420;10.640;2023-03-02T11:52:14;46.03;;;24.37;;
40150;SDS011;25866;52.420;10.640;2023-03-02T11:54:44;50.93;;;25.53;;
40150;SDS011;25866;52.420;10.640;2023-03-02T11:57:18;43.00;;;22.63;;
40150;SDS011;25866;52.420;10.640;2023-03-02T11:59:49;53.47;;;26.03;;
40150;SDS011;25866;52.420;10.640;2023-03-02T12:02:16;49.53;;;26.70;;
40150;SDS011;25866;52.420;10.640;2023-03-02T12:04:43;51.83;;;26.83;;
40150;SDS011;25866;52.420;10.640;2023-03-02T12:09:57;44.83;;;25.03;;
40150;SDS011;25866;52.420;10.640;2023-03-02T12:12:41;47.20;;;24.60;;
40150;SDS011;25866;52.420;10.640;2023-03-02T12:18:13;41.43;;;23.27;;
40150;SDS011;25866;52.420;10.640;2023-03-02T12:20:45;50.07;;;24.70;;
40150;SDS011;25866;52.420;10.640;2023-03-02T12:23:26;46.10;;;24.47;;
40150;SDS011;25866;52.420;10.640;2023-03-02T12:26:07;49.63;;;24.90;;
40150;SDS011;25866;52.420;10.640;2023-03-02T12:31:26;37.33;;;20.90;;
40150;SDS011;25866;52.420;10.640;2023-03-02T12:34:22;36.53;;;20.43;;
40150;SDS011;25866;52.420;10.640;2023-03-02T12:37:05;38.03;;;20.97;;
40150;SDS011;25866;52.420;10.640;2023-03-02T12:40:01;34.93;;;19.63;;
40150;SDS011;25866;52.420;10.640;2023-03-02T12:45:40;37.77;;;20.83;;
40150;SDS011;25866;52.420;10.640;2023-03-02T12:50:58;33.90;;;20.10;;
40150;SDS011;25866;52.420;10.640;2023-03-02T12:53:26;34.53;;;19.07;;
40150;SDS011;25866;52.420;10.640;2023-03-02T12:55:52;37.83;;;19.37;;
40150;SDS011;25866;52.420;10.640;2023-03-02T12:58:19;37.93;;;18.67;;
40150;SDS011;25866;52.420;10.640;2023-03-02T13:00:51;31.07;;;16.60;;
40150;SDS011;25866;52.420;10.640;2023-03-02T13:03:18;29.13;;;16.93;;
40150;SDS011;25866;52.420;10.640;2023-03-02T13:05:44;30.37;;;16.90;;
40150;SDS011;25866;52.420;10.640;2023-03-02T13:08:21;26.90;;;16.67;;
40150;SDS011;25866;52.420;10.640;2023-03-02T13:10:55;29.87;;;17.63;;
40150;SDS011;25866;52.420;10.640;2023-03-02T13:13:25;28.20;;;16.13;;
40150;SDS011;25866;52.420;10.640;2023-03-02T13:16:04;24.40;;;14.30;;
40150;SDS011;25866;52.420;10.640;2023-03-02T13:18:41;23.77;;;13.90;;
40150;SDS011;25866;52.420;10.640;2023-03-02T13:21:09;31.53;;;17.80;;
40150;SDS011;25866;52.420;10.640;2023-03-02T13:23:42;27.03;;;14.87;;
40150;SDS011;25866;52.420;10.640;2023-03-02T13:26:29;23.07;;;13.83;;
40150;SDS011;25866;52.420;10.640;2023-03-02T13:29:01;27.30;;;14.43;;
40150;SDS011;25866;52.420;10.640;2023-03-02T13:31:36;26.53;;;15.20;;
40150;SDS011;25866;52.420;10.640;2023-03-02T13:34:01;31.27;;;18.03;;
40150;SDS011;25866;52.420;10.640;2023-03-02T13:36:36;29.20;;;15.97;;
40150;SDS011;25866;52.420;10.640;2023-03-02T13:39:04;24.73;;;14.23;;
40150;SDS011;25866;52.420;10.640;2023-03-02T13:41:32;24.73;;;15.87;;
40150;SDS011;25866;52.420;10.640;2023-03-02T13:45:00;27.27;;;15.50;;
40150;SDS011;25866;52.420;10.640;2023-03-02T13:46:59;26.57;;;15.83;;
40150;SDS011;25866;52.420;10.640;2023-03-02T13:49:29;26.43;;;15.27;;
40150;SDS011;25866;52.420;10.640;2023-03-02T13:51:59;30.30;;;16.93;;
40150;SDS011;25866;52.420;10.640;2023-03-02T13:54:32;32.37;;;17.87;;
40150;SDS011;25866;52.420;10.640;2023-03-02T13:56:59;28.90;;;16.07;;
40150;SDS011;25866;52.420;10.640;2023-03-02T13:59:27;27.40;;;15.93;;
40150;SDS011;25866;52.420;10.640;2023-03-02T14:01:56;30.93;;;15.63;;
40150;SDS011;25866;52.420;10.640;2023-03-02T14:04:22;32.50;;;17.10;;
40150;SDS011;25866;52.420;10.640;2023-03-02T14:06:51;36.83;;;18.17;;
40150;SDS011;25866;52.420;10.640;2023-03-02T14:09:18;80.13;;;28.23;;
40150;SDS011;25866;52.420;10.640;2023-03-02T14:11:48;43.63;;;19.67;;
40150;SDS011;25866;52.420;10.640;2023-03-02T14:14:18;48.67;;;23.97;;
40150;SDS011;25866;52.420;10.640;2023-03-02T14:16:46;34.40;;;18.67;;
40150;SDS011;25866;52.420;10.640;2023-03-02T14:19:12;29.63;;;16.80;;
40150;SDS011;25866;52.420;10.640;2023-03-02T14:21:42;26.67;;;15.40;;
40150;SDS011;25866;52.420;10.640;2023-03-02T14:24:09;27.07;;;15.17;;
40150;SDS011;25866;52.420;10.640;2023-03-02T14:26:41;27.50;;;15.13;;
40150;SDS011;25866;52.420;10.640;2023-03-02T14:29:27;26.53;;;15.07;;
40150;SDS011;25866;52.420;10.640;2023-03-02T14:31:55;28.93;;;15.97;;
40150;SDS011;25866;52.420;10.640;2023-03-02T14:34:24;24.93;;;14.63;;
40150;SDS011;25866;52.420;10.640;2023-03-02T14:36:51;25.63;;;15.50;;
40150;SDS011;25866;52.420;10.640;2023-03-02T14:42:05;29.27;;;15.80;;
40150;SDS011;25866;52.420;10.640;2023-03-02T14:44:35;30.50;;;15.90;;
40150;SDS011;25866;52.420;10.640;2023-03-02T14:47:01;27.23;;;15.63;;
40150;SDS011;25866;52.420;10.640;2023-03-02T14:49:27;28.93;;;15.30;;
40150;SDS011;25866;52.420;10.640;2023-03-02T14:52:00;31.93;;;17.07;;
40150;SDS011;25866;52.420;10.640;2023-03-02T14:54:35;27.57;;;16.43;;
40150;SDS011;25866;52.420;10.640;2023-03-02T14:57:19;32.07;;;16.73;;
40150;SDS011;25866;52.420;10.640;2023-03-02T14:59:47;30.83;;;16.83;;
40150;SDS011;25866;52.420;10.640;2023-03-02T15:02:13;29.03;;;16.30;;
40150;SDS011;25866;52.420;10.640;2023-03-02T15:04:39;29.00;;;16.93;;
40150;SDS011;25866;52.420;10.640;2023-03-02T15:07:05;27.40;;;17.20;;
40150;SDS011;25866;52.420;10.640;2023-03-02T15:09:34;32.90;;;18.40;;
40150;SDS011;25866;52.420;10.640;2023-03-02T15:12:00;32.43;;;17.10;;
40150;SDS011;25866;52.420;10.640;2023-03-02T15:14:25;26.43;;;16.10;;
40150;SDS011;25866;52.420;10.640;2023-03-02T15:16:51;25.97;;;15.43;;
40150;SDS011;25866;52.420;10.640;2023-03-02T15:19:17;32.03;;;19.03;;
40150;SDS011;25866;52.420;10.640;2023-03-02T15:21:43;24.43;;;14.80;;